Time;durP1;ratioP1;P1;durP2;ratioP2;P2;SDS_P1;SDS_P2;PMS_P1;PMS_P2;Temp;Humidity;BMP_temperature;BMP_pressure;BME280_temperature;BME280_humidity;BME280_pressure;Samples;Min_cycle;Max_cycle;Signal;HPM_P1;HPM_P2
2022/10/13 00:01:11;;;;;;;7.97;1.20;;;;;;;4.74;100.00;100652.16;1699572;82;21373;-47
2022/10/13 00:03:38;;;;;;;3.92;1.35;;;;;;;4.75;100.00;100650.81;1694311;82;21125;-47
2022/10/13 00:06:07;;;;;;;5.10;1.30;;;;;;;4.79;100.00;100654.31;1697828;82;21110;-47
2022/10/13 00:08:33;;;;;;;7.27;1.30;;;;;;;4.81;100.00;100649.41;1698799;82;21820;-47
2022/10/13 00:11:00;;;;;;;5.50;1.83;;;;;;;4.83;100.00;100651.61;1694189;82;21069;-47
2022/10/13 00:13:28;;;;;;;5.00;1.50;;;;;;;4.82;100.00;100648.51;1700814;82;21127;-47
2022/10/13 00:15:54;;;;;;;5.93;1.33;;;;;;;4.80;100.00;100649.42;1695870;82;21086;-47
2022/10/13 00:18:22;;;;;;;6.93;1.20;;;;;;;4.78;100.00;100657.87;1701633;82;21036;-47
2022/10/13 00:20:50;;;;;;;4.40;1.17;;;;;;;4.75;100.00;100648.14;1696896;82;21848;-49
2022/10/13 00:23:16;;;;;;;4.97;1.20;;;;;;;4.73;100.00;100647.72;1701497;82;21096;-47
2022/10/13 00:25:45;;;;;;;4.83;1.03;;;;;;;4.68;100.00;100650.89;1691180;82;21048;-47
2022/10/13 00:28:11;;;;;;;3.20;1.00;;;;;;;4.65;100.00;100652.25;1688522;83;21082;-47
2022/10/13 00:30:38;;;;;;;7.73;1.33;;;;;;;4.66;100.00;100658.91;1685849;83;21067;-47
2022/10/13 00:33:04;;;;;;;3.57;1.07;;;;;;;4.66;100.00;100654.02;1739497;80;21836;-47
2022/10/13 00:35:32;;;;;;;4.37;1.10;;;;;;;4.65;100.00;100656.25;1736167;80;21054;-47
2022/10/13 00:37:58;;;;;;;7.47;1.50;;;;;;;4.66;100.00;100656.69;1745465;80;20955;-47
2022/10/13 00:40:26;;;;;;;3.23;1.00;;;;;;;4.68;100.00;100660.23;1741135;80;21048;-47
2022/10/13 00:42:53;;;;;;;4.90;1.20;;;;;;;4.71;100.00;100655.73;1741395;80;20995;-47
2022/10/13 00:45:28;;;;;;;6.83;1.17;;;;;;;4.74;100.00;100652.16;1741595;80;21772;-47
2022/10/13 00:47:56;;;;;;;5.60;1.20;;;;;;;4.76;100.00;100659.25;1742175;80;20994;-48
2022/10/13 00:50:27;;;;;;;5.67;1.10;;;;;;;4.77;100.00;100654.77;1738826;80;21035;-48
2022/10/13 00:52:54;;;;;;;10.23;1.37;;;;;;;4.78;100.00;100659.20;1741996;80;20982;-47
2022/10/13 00:55:25;;;;;;;3.63;1.17;;;;;;;4.78;100.00;100657.42;1741074;80;21020;-47
2022/10/13 00:57:53;;;;;;;5.40;0.90;;;;;;;4.79;100.00;100655.64;1743183;80;21771;-47
2022/10/13 01:00:22;;;;;;;4.93;1.00;;;;;;;4.81;100.00;100652.08;1742752;80;20988;-47
2022/10/13 01:02:49;;;;;;;3.10;1.00;;;;;;;4.85;100.00;100651.57;1731015;80;21755;-47
2022/10/13 01:05:15;;;;;;;4.60;1.40;;;;;;;4.88;100.00;100651.10;1740498;80;21039;-47
2022/10/13 01:07:47;;;;;;;8.90;1.20;;;;;;;4.92;100.00;100647.96;1740723;80;20999;-47
2022/10/13 01:10:11;;;;;;;3.80;1.33;;;;;;;4.98;100.00;100650.55;1738038;80;21875;-47
2022/10/13 01:13:15;;;;;;;5.40;1.20;;;;;;;5.00;100.00;100650.09;1743183;80;20977;-47
2022/10/13 01:16:19;;;;;;;4.80;1.63;;;;;;;5.06;100.00;100642.01;1744069;80;21467;-47
2022/10/13 01:19:02;;;;;;;2.40;1.43;;;;;;;5.11;100.00;100644.16;1741742;80;21050;-47
2022/10/13 01:22:11;;;;;;;7.47;1.80;;;;;;;5.14;100.00;100639.24;1743330;80;20987;-47
2022/10/13 01:25:07;;;;;;;7.40;2.00;;;;;;;5.15;100.00;100643.23;1744256;80;21704;-47
2022/10/13 01:27:46;;;;;;;;;;;;;;;5.15;100.00;100635.67;1743913;80;21403;-47
2022/10/13 01:30:17;;;;;;;8.97;3.03;;;;;;;5.15;100.00;100639.68;1735383;80;20209;-47
2022/10/13 01:32:59;;;;;;;8.80;2.73;;;;;;;5.13;100.00;100638.36;1739236;80;21046;-48
2022/10/13 01:35:34;;;;;;;4.60;1.30;;;;;;;5.14;100.00;100639.24;1739115;80;21852;-48
2022/10/13 01:38:09;;;;;;;2.83;1.43;;;;;;;5.13;100.00;100635.69;1736870;80;21888;-48
2022/10/13 01:41:13;;;;;;;12.47;1.77;;;;;;;5.13;100.00;100635.69;1740266;80;21069;-45
2022/10/13 01:43:51;;;;;;;7.05;2.52;;;;;;;5.14;100.00;100633.91;1741513;80;21826;-46
2022/10/13 01:46:26;;;;;;;7.10;2.10;;;;;;;5.15;100.00;100629.89;1736271;80;21097;-46
2022/10/13 01:48:54;;;;;;;8.23;2.47;;;;;;;5.18;100.00;100629.86;1738219;80;21138;-46
2022/10/13 01:51:22;;;;;;;7.33;2.50;;;;;;;5.24;100.00;100643.13;1736588;80;21825;-46
2022/10/13 01:53:52;;;;;;;6.00;2.67;;;;;;;5.28;100.00;100643.50;1738788;80;21081;-46
2022/10/13 01:56:19;;;;;;;3.57;1.80;;;;;;;5.30;100.00;100635.03;1739844;80;21112;-47
2022/10/13 01:58:48;;;;;;;9.03;3.60;;;;;;;5.32;100.00;100639.91;1735311;80;21053;-48
2022/10/13 02:01:48;;;;;;;6.37;3.30;;;;;;;5.36;100.00;100637.20;1706502;82;21392;-48
2022/10/13 02:04:51;;;;;;;10.30;3.20;;;;;;;5.36;100.00;100642.06;1678778;83;21752;-46
2022/10/13 02:07:27;;;;;;;6.37;1.93;;;;;;;5.35;100.00;100638.99;1676398;83;21535;-47
2022/10/13 02:10:00;;;;;;;9.40;2.08;;;;;;;5.37;100.00;100642.50;1739861;80;21601;-47
2022/10/13 02:12:36;;;;;;;4.63;1.90;;;;;;;5.40;100.00;100638.47;1736738;80;21548;-48
2022/10/13 02:15:06;;;;;;;6.13;1.77;;;;;;;5.43;100.00;100638.89;1734891;80;21378;-49
2022/10/13 02:17:34;;;;;;;4.67;2.00;;;;;;;5.46;100.00;100634.81;1717770;80;21619;-48
2022/10/13 02:20:05;;;;;;;5.13;2.17;;;;;;;5.50;100.00;100637.44;1737615;80;21512;-48
2022/10/13 02:22:41;;;;;;;6.37;2.40;;;;;;;5.57;100.00;100639.57;1695902;82;21074;-47
2022/10/13 02:25:08;;;;;;;4.57;2.90;;;;;;;5.63;100.00;100635.02;1642190;85;21051;-48
2022/10/13 02:27:34;;;;;;;5.33;2.83;;;;;;;5.68;100.00;100638.53;1737527;80;21643;-47
2022/10/13 02:30:01;;;;;;;7.50;4.37;;;;;;;5.70;100.00;100634.47;1737720;80;21822;-46
2022/10/13 02:32:29;;;;;;;6.10;3.67;;;;;;;5.73;100.00;100637.11;1739113;80;21112;-49
2022/10/13 02:34:55;;;;;;;8.50;4.30;;;;;;;5.75;100.00;100637.98;1708596;82;21092;-48
2022/10/13 02:37:24;;;;;;;9.10;4.27;;;;;;;5.79;100.00;100640.13;1736623;80;21058;-49
2022/10/13 02:39:51;;;;;;;6.17;3.27;;;;;;;5.81;100.00;100631.20;1742266;80;21272;-48
2022/10/13 02:42:18;;;;;;;6.73;2.97;;;;;;;5.83;100.00;100637.41;1737418;80;21833;-47
2022/10/13 02:44:45;;;;;;;13.07;3.67;;;;;;;5.86;100.00;100629.81;1736545;80;21045;-47
2022/10/13 02:47:12;;;;;;;8.13;3.40;;;;;;;5.90;100.00;100633.77;1734415;80;21008;-47
2022/10/13 02:49:39;;;;;;;6.23;3.17;;;;;;;5.96;100.00;100636.34;1704201;82;21101;-48
2022/10/13 02:52:06;;;;;;;5.70;2.77;;;;;;;6.01;100.00;100634.95;1678773;83;21167;-48
2022/10/13 02:54:32;;;;;;;10.73;3.80;;;;;;;6.05;100.00;100630.85;1703819;82;21990;-47
2022/10/13 02:56:58;;;;;;;6.17;3.47;;;;;;;6.10;100.00;100629.91;1701572;82;21081;-47
2022/10/13 02:59:25;;;;;;;10.67;4.47;;;;;;;6.10;100.00;100632.12;1738905;80;22191;-47
2022/10/13 03:01:51;;;;;;;10.27;4.50;;;;;;;6.11;100.00;100629.89;1738846;80;21007;-49
2022/10/13 03:04:18;;;;;;;9.13;3.87;;;;;;;6.12;100.00;100627.65;1737080;80;21552;-47
2022/10/13 03:06:44;;;;;;;6.67;3.80;;;;;;;6.13;100.00;100625.38;1736460;80;21937;-49
2022/10/13 03:09:12;;;;;;;8.30;3.50;;;;;;;6.14;100.00;100628.94;1736446;80;21106;-48
2022/10/13 03:11:40;;;;;;;6.27;2.87;;;;;;;6.16;100.00;100623.12;1738737;80;21551;-47
2022/10/13 03:14:06;;;;;;;8.73;3.20;;;;;;;6.18;100.00;100619.52;1743878;80;21094;-46
2022/10/13 03:16:33;;;;;;;5.50;2.23;;;;;;;6.20;100.00;100621.72;1739606;80;21067;-47
2022/10/13 03:18:59;;;;;;;11.30;3.63;;;;;;;6.26;100.00;100624.28;1704116;82;21936;-46
2022/10/13 03:21:26;;;;;;;9.53;3.40;;;;;;;6.29;100.00;100629.59;1711414;82;21083;-46
2022/10/13 03:23:53;;;;;;;10.00;3.57;;;;;;;6.34;100.00;100628.16;1741009;80;21081;-47
2022/10/13 03:26:20;;;;;;;7.13;3.83;;;;;;;6.35;100.00;100625.47;1733002;80;21118;-46
2022/10/13 03:28:50;;;;;;;6.77;3.77;;;;;;;6.38;100.00;100628.55;1713233;82;21098;-48
2022/10/13 03:31:17;;;;;;;9.93;4.00;;;;;;;6.39;100.00;100623.15;1711589;82;22249;-48
2022/10/13 03:33:44;;;;;;;7.90;2.83;;;;;;;6.40;100.00;100622.70;1711786;82;21652;-48
2022/10/13 03:36:12;;;;;;;7.70;2.53;;;;;;;6.40;100.00;100625.37;1711891;82;21075;-48
2022/10/13 03:38:40;;;;;;;7.13;2.53;;;;;;;6.39;100.00;100623.15;1713038;82;21023;-47
2022/10/13 03:41:14;;;;;;;6.20;2.57;;;;;;;6.40;100.00;100620.02;1716950;82;20979;-47
2022/10/13 03:43:41;;;;;;;6.27;2.03;;;;;;;6.40;100.00;100618.69;1714355;82;21650;-47
2022/10/13 03:46:13;;;;;;;8.63;2.57;;;;;;;6.40;100.00;100623.58;1713367;82;20977;-47
2022/10/13 03:48:40;;;;;;;5.60;1.97;;;;;;;6.43;100.00;100626.67;1709673;82;21014;-47
2022/10/13 03:51:13;;;;;;;5.37;2.00;;;;;;;6.44;100.00;100619.95;1711446;82;21101;-47
2022/10/13 03:53:42;;;;;;;7.73;1.63;;;;;;;6.46;100.00;100631.48;1715101;82;21054;-47
2022/10/13 03:56:12;;;;;;;5.20;1.97;;;;;;;6.50;100.00;100634.13;1689586;82;22284;-48
2022/10/13 03:58:41;;;;;;;6.23;2.30;;;;;;;6.50;100.00;100635.45;1682697;82;21024;-47
2022/10/13 04:01:08;;;;;;;7.40;2.53;;;;;;;6.51;100.00;100631.42;1712794;82;21395;-47
2022/10/13 04:03:34;;;;;;;6.83;2.53;;;;;;;6.52;100.00;100638.55;1712135;82;21511;-48
2022/10/13 04:06:03;;;;;;;5.43;3.43;;;;;;;6.55;100.00;100630.92;1709512;82;21007;-46
2022/10/13 04:08:30;;;;;;;9.30;4.10;;;;;;;6.57;100.00;100637.11;1707788;82;21745;-49
2022/10/13 04:11:05;;;;;;;8.33;3.73;;;;;;;6.56;100.00;100633.55;1709558;82;21587;-49
2022/10/13 04:13:34;;;;;;;5.67;2.80;;;;;;;6.56;100.00;100625.98;1711543;82;20986;-48
2022/10/13 04:16:05;;;;;;;9.20;3.13;;;;;;;6.56;100.00;100629.53;1674611;82;21431;-48
2022/10/13 04:18:31;;;;;;;13.00;3.47;;;;;;;6.55;100.00;100637.13;1700618;82;21071;-46
2022/10/13 04:20:59;;;;;;;9.13;3.20;;;;;;;6.57;100.00;100640.67;1700229;82;21786;-48
2022/10/13 04:23:25;;;;;;;7.00;3.20;;;;;;;6.57;100.00;100643.80;1698272;82;22098;-48
2022/10/13 04:25:53;;;;;;;7.40;3.07;;;;;;;6.56;100.00;100644.25;1703023;82;21507;-49
2022/10/13 04:28:19;;;;;;;5.57;3.10;;;;;;;6.56;100.00;100648.26;1703468;82;21047;-47
2022/10/13 04:30:46;;;;;;;12.13;2.63;;;;;;;6.57;100.00;100644.68;1668258;84;21101;-48
2022/10/13 04:33:12;;;;;;;9.07;3.40;;;;;;;6.59;100.00;100638.86;1645778;85;22894;-47
2022/10/13 04:35:40;;;;;;;11.87;5.13;;;;;;;6.62;100.00;100637.48;1700617;82;21524;-48
2022/10/13 04:38:07;;;;;;;8.77;3.63;;;;;;;6.64;100.00;100636.96;1701945;82;21060;-48
2022/10/13 04:40:34;;;;;;;9.23;4.57;;;;;;;6.67;100.00;100634.25;1702536;82;21078;-47
2022/10/13 04:43:01;;;;;;;9.23;3.47;;;;;;;6.70;100.00;100634.20;1705766;82;21094;-49
2022/10/13 04:45:28;;;;;;;7.23;4.07;;;;;;;6.73;100.00;100640.81;1704043;82;22443;-48
2022/10/13 04:47:54;;;;;;;8.30;3.70;;;;;;;6.75;100.00;100644.80;1698750;82;21572;-47
2022/10/13 04:50:21;;;;;;;10.80;3.37;;;;;;;6.75;100.00;100651.03;1703340;82;21083;-46
2022/10/13 04:52:49;;;;;;;6.23;3.27;;;;;;;6.75;100.00;100648.81;1702102;82;21593;-47
2022/10/13 04:55:17;;;;;;;8.15;3.58;;;;;;;6.75;100.00;100647.03;1703937;82;21509;-47
2022/10/13 04:57:44;;;;;;;6.87;3.37;;;;;;;6.75;100.00;100656.39;1697165;82;21709;-46
2022/10/13 05:00:12;;;;;;;7.40;3.37;;;;;;;6.74;100.00;100645.25;1706556;82;21018;-47
2022/10/13 05:02:39;;;;;;;10.70;4.33;;;;;;;6.77;100.00;100651.90;1700846;82;21103;-47
2022/10/13 05:05:07;;;;;;;11.57;4.50;;;;;;;6.78;100.00;100646.98;1698302;82;21368;-46
2022/10/13 05:07:35;;;;;;;10.60;2.97;;;;;;;6.81;100.00;100641.55;1702787;82;21038;-47
2022/10/13 05:10:01;;;;;;;8.17;2.90;;;;;;;6.85;100.00;100646.41;1704892;82;21902;-46
2022/10/13 05:12:27;;;;;;;11.23;4.90;;;;;;;6.88;100.00;100648.14;1702553;82;21148;-47
2022/10/13 05:14:56;;;;;;;5.92;3.40;;;;;;;6.91;100.00;100654.30;1698863;82;21037;-47
2022/10/13 05:17:22;;;;;;;8.40;4.40;;;;;;;6.95;100.00;100655.14;1695839;82;21065;-46
2022/10/13 05:19:50;;;;;;;10.65;5.17;;;;;;;6.99;100.00;100663.06;1706144;82;21079;-47
2022/10/13 05:22:17;;;;;;;9.17;4.37;;;;;;;7.03;100.00;100669.26;1705779;82;22549;-48
2022/10/13 05:24:43;;;;;;;10.25;3.08;;;;;;;7.02;100.00;100664.36;1700985;82;21521;-47
2022/10/13 05:27:11;;;;;;;7.20;3.03;;;;;;;7.02;100.00;100665.70;1717425;80;21655;-48
2022/10/13 05:29:38;;;;;;;7.25;2.67;;;;;;;7.04;100.00;100658.53;1735461;80;21057;-48
2022/10/13 05:32:04;;;;;;;8.13;3.08;;;;;;;7.07;100.00;100666.94;1735358;80;22371;-48
2022/10/13 05:34:31;;;;;;;7.97;3.80;;;;;;;7.09;100.00;100667.34;1735062;80;21911;-47
2022/10/13 05:36:59;;;;;;;7.25;2.95;;;;;;;7.11;100.00;100661.51;1740820;80;21706;-48
2022/10/13 05:39:26;;;;;;;8.60;2.67;;;;;;;7.15;100.00;100672.56;1739973;80;21081;-47
2022/10/13 05:41:52;;;;;;;5.67;2.20;;;;;;;7.18;100.00;100672.97;1740230;80;21080;-47
2022/10/13 05:44:20;;;;;;;8.00;4.17;;;;;;;7.23;100.00;100679.10;1742824;80;21717;-48
2022/10/13 05:46:55;;;;;;;10.68;3.50;;;;;;;7.28;100.00;100680.37;1742752;81;21828;-47
2022/10/13 05:49:22;;;;;;;6.83;3.70;;;;;;;7.32;100.00;100680.26;1739924;80;22290;-48
2022/10/13 05:51:52;;;;;;;8.85;3.20;;;;;;;7.37;100.00;100681.52;1737151;80;21053;-49
2022/10/13 05:54:29;;;;;;;10.53;4.35;;;;;;;7.39;100.00;100685.95;1742717;80;21037;-47
2022/10/13 05:57:03;;;;;;;7.05;3.72;;;;;;;7.41;100.00;100683.20;1743199;80;21086;-49
2022/10/13 05:59:33;;;;;;;9.93;3.05;;;;;;;7.40;100.00;100680.13;1741189;80;21818;-47
2022/10/13 06:02:01;;;;;;;13.48;2.90;;;;;;;7.42;100.00;100680.95;1745101;80;21033;-47
2022/10/13 06:04:37;;;;;;;9.28;2.92;;;;;;;7.42;100.00;100679.62;1741578;80;21570;-48
2022/10/13 06:07:04;;;;;;;5.47;2.65;;;;;;;7.44;100.00;100683.16;1740830;80;22194;-48
2022/10/13 06:09:39;;;;;;;6.40;2.33;;;;;;;7.45;100.00;100680.45;1739564;80;21503;-47
2022/10/13 06:12:06;;;;;;;8.63;1.98;;;;;;;7.47;100.00;100685.33;1741673;80;21718;-47
2022/10/13 06:14:34;;;;;;;6.80;2.67;;;;;;;7.49;100.00;100682.59;1746907;80;21084;-46
2022/10/13 06:17:04;;;;;;;9.00;3.30;;;;;;;7.51;100.00;100677.63;1741328;80;21049;-47
2022/10/13 06:19:32;;;;;;;7.53;2.72;;;;;;;7.55;100.00;100675.78;1743214;80;21399;-48
2022/10/13 06:22:01;;;;;;;10.80;2.80;;;;;;;7.59;100.00;100679.69;1738954;80;21049;-48
2022/10/13 06:24:27;;;;;;;5.30;2.20;;;;;;;7.63;100.00;100690.36;1736955;80;23128;-47
2022/10/13 06:26:53;;;;;;;6.87;3.42;;;;;;;7.63;100.00;100687.67;1698397;82;21110;-47
2022/10/13 06:29:20;;;;;;;6.28;2.62;;;;;;;7.66;100.00;100682.23;1737133;80;21264;-48
2022/10/13 06:31:47;;;;;;;10.13;4.53;;;;;;;7.71;100.00;100684.37;1737512;80;21179;-47
2022/10/13 06:34:14;;;;;;;8.58;2.52;;;;;;;7.74;100.00;100687.84;1741220;80;21003;-48
2022/10/13 06:36:44;;;;;;;9.18;3.50;;;;;;;7.79;100.00;100685.08;1738665;80;21760;-48
2022/10/13 06:39:11;;;;;;;5.47;2.75;;;;;;;7.82;100.00;100681.01;1736991;80;20999;-48
2022/10/13 06:41:37;;;;;;;9.15;2.87;;;;;;;7.87;100.00;100686.67;1739095;80;21982;-47
2022/10/13 06:44:04;;;;;;;9.55;2.33;;;;;;;7.91;100.00;100684.33;1740786;80;20978;-49
2022/10/13 06:46:32;;;;;;;8.13;2.62;;;;;;;7.97;100.00;100688.70;1732997;80;20989;-47
2022/10/13 06:48:58;;;;;;;7.08;2.40;;;;;;;8.03;100.00;100683.19;1737115;80;22449;-47
2022/10/13 06:51:27;;;;;;;6.75;1.80;;;;;;;8.08;100.00;100687.97;1729260;80;21253;-48
2022/10/13 06:53:57;;;;;;;7.95;2.92;;;;;;;8.14;100.00;100685.17;1732562;80;21081;-48
2022/10/13 06:56:25;;;;;;;6.20;2.37;;;;;;;8.22;100.00;100691.23;1732788;80;21539;-48
2022/10/13 06:58:51;;;;;;;4.25;2.25;;;;;;;8.28;100.00;100685.70;1728204;80;21153;-47
2022/10/13 07:01:18;;;;;;;8.73;2.58;;;;;;;8.34;100.00;100695.44;1730168;80;23619;-48
2022/10/13 07:03:48;;;;;;;11.15;2.90;;;;;;;8.39;100.00;100685.95;1730905;80;21611;-47
2022/10/13 07:06:17;;;;;;;7.55;2.65;;;;;;;8.45;100.00;100689.81;1733691;80;21513;-47
2022/10/13 07:08:44;;;;;;;8.23;3.22;;;;;;;8.48;100.00;100689.30;1739462;80;21530;-46
2022/10/13 07:11:12;;;;;;;4.87;2.00;;;;;;;8.53;100.00;100690.50;1697739;82;21078;-48
2022/10/13 07:13:40;;;;;;;9.00;2.35;;;;;;;8.58;100.00;100684.58;1731675;80;21801;-47
2022/10/13 07:16:08;;;;;;;8.40;2.85;;;;;;;8.63;100.00;100685.33;1732809;80;20981;-48
2022/10/13 07:18:34;;;;;;;2.98;1.70;;;;;;;8.67;100.00;100687.91;1732929;80;21085;-48
2022/10/13 07:21:02;;;;;;;13.98;2.95;;;;;;;8.71;100.00;100689.58;1731372;80;21056;-47
2022/10/13 07:23:29;;;;;;;5.72;2.40;;;;;;;8.77;100.00;100687.65;1729894;80;21141;-47
2022/10/13 07:25:57;;;;;;;8.53;3.25;;;;;;;8.83;100.00;100690.20;1734315;80;21991;-47
2022/10/13 07:28:24;;;;;;;10.45;2.95;;;;;;;8.87;100.00;100690.06;1736195;80;21120;-49
2022/10/13 07:30:52;;;;;;;12.03;2.85;;;;;;;8.92;100.00;100691.30;1743804;80;21144;-47
2022/10/13 07:33:19;;;;;;;13.62;4.37;;;;;;;8.96;100.00;100688.94;1743056;80;21047;-45
2022/10/13 07:35:45;;;;;;;8.73;3.52;;;;;;;9.00;100.00;100687.94;1742917;80;21622;-47
2022/10/13 07:38:12;;;;;;;11.55;3.60;;;;;;;9.05;100.00;100691.37;1745426;80;21918;-46
2022/10/13 07:40:41;;;;;;;10.13;3.62;;;;;;;9.07;100.00;100691.76;1742692;80;21334;-46
2022/10/13 07:43:08;;;;;;;9.10;2.37;;;;;;;9.13;100.00;100689.81;1742616;80;21507;-47
2022/10/13 07:45:34;;;;;;;15.50;2.90;;;;;;;9.17;100.00;100686.14;1740749;80;21029;-47
2022/10/13 07:48:01;;;;;;;7.15;3.12;;;;;;;9.22;100.00;100686.88;1741211;80;21088;-46
2022/10/13 07:50:28;;;;;;;6.00;2.02;;;;;;;9.25;100.00;100686.34;1738644;80;21797;-46
2022/10/13 07:52:55;;;;;;;4.65;2.33;;;;;;;9.31;100.00;100684.82;1739057;80;21959;-45
2022/10/13 07:55:22;;;;;;;5.97;2.37;;;;;;;9.38;100.00;100689.55;1738747;80;21045;-46
2022/10/13 07:57:50;;;;;;;9.23;2.77;;;;;;;9.45;100.00;100693.36;1745256;80;21072;-48
2022/10/13 08:00:18;;;;;;;10.65;3.50;;;;;;;9.53;100.00;100684.22;1742085;80;21520;-47
2022/10/13 08:02:50;;;;;;;7.55;4.10;;;;;;;9.60;100.00;100685.80;1708369;82;21825;-47
2022/10/13 08:05:16;;;;;;;13.70;4.85;;;;;;;9.66;100.00;100691.86;1740912;80;21096;-47
2022/10/13 08:07:43;;;;;;;10.03;3.95;;;;;;;9.71;100.00;100690.37;1740128;80;21057;-46
2022/10/13 08:10:09;;;;;;;10.58;3.25;;;;;;;9.76;100.00;100691.13;1739573;80;21642;-46
2022/10/13 08:12:36;;;;;;;12.60;4.60;;;;;;;9.81;100.00;100688.71;1737928;80;21071;-48
2022/10/13 08:15:03;;;;;;;12.03;3.47;;;;;;;9.88;100.00;100686.25;1744910;80;21045;-46
2022/10/13 08:17:30;;;;;;;11.25;3.80;;;;;;;9.95;100.00;100688.77;1738990;80;21697;-46
2022/10/13 08:19:57;;;;;;;7.25;4.22;;;;;;;10.02;100.00;100693.02;1739450;80;21053;-46
2022/10/13 08:22:26;;;;;;;7.67;3.67;;;;;;;10.08;100.00;100682.95;1740565;80;21413;-48
2022/10/13 08:24:52;;;;;;;12.37;4.22;;;;;;;10.15;100.00;100679.59;1744491;80;21089;-45
2022/10/13 08:27:21;;;;;;;10.55;3.70;;;;;;;10.23;100.00;100689.68;1741838;80;21810;-48
2022/10/13 08:29:48;;;;;;;8.45;3.20;;;;;;;10.29;100.00;100687.28;1747060;80;21371;-48
2022/10/13 08:32:15;;;;;;;7.35;2.87;;;;;;;10.35;100.00;100684.37;1748293;80;21358;-46
2022/10/13 08:34:43;;;;;;;11.57;3.87;;;;;;;10.39;100.00;100690.06;1745211;80;22048;-48
2022/10/13 08:37:15;;;;;;;9.98;3.70;;;;;;;10.42;100.00;100687.28;1745783;80;21142;-47
2022/10/13 08:39:42;;;;;;;10.82;3.30;;;;;;;10.43;100.00;100683.66;1746003;80;21844;-47
2022/10/13 08:42:17;;;;;;;10.13;2.65;;;;;;;10.44;100.00;100687.66;1716868;82;21038;-46
2022/10/13 08:45:02;;;;;;;10.43;2.83;;;;;;;10.48;100.00;100686.60;1715511;82;22354;-46
2022/10/13 08:47:43;;;;;;;9.95;3.85;;;;;;;10.54;100.00;100689.58;1686677;83;21051;-48
2022/10/13 08:50:17;;;;;;;7.00;3.15;;;;;;;10.58;100.00;100685.84;1719085;82;21313;-47
2022/10/13 08:53:27;;;;;;;8.18;3.45;;;;;;;10.63;100.00;100686.58;1710645;82;21928;-47
2022/10/13 08:56:13;;;;;;;11.73;3.52;;;;;;;10.65;100.00;100682.47;1710769;82;21552;-48
2022/10/13 08:58:43;;;;;;;9.33;3.35;;;;;;;10.67;100.00;100685.53;1713128;82;21097;-48
2022/10/13 09:01:22;;;;;;;15.58;2.72;;;;;;;10.72;100.00;100689.44;1712540;82;21050;-47
2022/10/13 09:04:11;;;;;;;10.15;2.65;;;;;;;10.74;100.00;100692.46;1711383;82;21106;-48
2022/10/13 09:06:49;;;;;;;6.53;2.02;;;;;;;10.77;100.00;100699.10;1684366;82;21959;-47
2022/10/13 09:09:21;;;;;;;8.50;2.72;;;;;;;10.80;100.00;100693.59;1682798;82;21088;-47
2022/10/13 09:11:49;;;;;;;6.25;1.75;;;;;;;10.86;100.00;100692.06;1687919;83;21923;-49
2022/10/13 09:14:27;;;;;;;7.28;2.20;;;;;;;10.92;100.00;100693.64;1684957;83;21068;-49
2022/10/13 09:17:25;;;;;;;9.65;1.90;;;;;;;10.98;100.00;100698.81;1687105;83;21637;-48
2022/10/13 09:20:17;;;;;;;6.33;1.42;;;;;;;11.02;100.00;100695.09;1683764;83;21417;-48
2022/10/13 09:23:07;;;;;;;10.30;1.60;;;;;;;11.08;100.00;100692.64;1674796;83;21505;-46
2022/10/13 09:25:43;;;;;;;6.12;2.10;;;;;;;11.11;100.00;100690.73;1671944;83;21603;-47
2022/10/13 09:28:25;;;;;;;8.30;2.75;;;;;;;11.14;100.00;100691.98;1699299;82;21142;-48
2022/10/13 09:31:15;;;;;;;8.60;1.52;;;;;;;11.18;100.00;100699.00;1680129;83;21018;-49
2022/10/13 09:33:45;;;;;;;6.47;1.57;;;;;;;11.20;100.00;100696.26;1679444;83;21770;-47
2022/10/13 09:36:14;;;;;;;5.78;1.62;;;;;;;11.22;100.00;100692.58;1681241;83;21010;-50
2022/10/13 09:38:46;;;;;;;3.95;1.10;;;;;;;11.26;100.00;100685.25;1655398;84;21038;-48
2022/10/13 09:41:20;;;;;;;7.47;1.35;;;;;;;11.29;100.00;100689.19;1725289;81;20982;-49
2022/10/13 09:43:53;;;;;;;4.65;1.20;;;;;;;11.32;100.00;100692.63;1728598;81;20959;-47
2022/10/13 09:46:29;;;;;;;5.62;0.90;;;;;;;11.35;100.00;100683.56;1725373;81;22491;-48
2022/10/13 09:49:33;;;;;;;4.70;1.62;;;;;;;11.37;100.00;100685.75;1726708;81;21077;-47
2022/10/13 09:52:04;;;;;;;6.83;1.42;;;;;;;11.44;100.00;100675.61;1722751;81;21018;-50
2022/10/13 09:54:50;;;;;;;12.45;2.02;;;;;;;11.44;100.00;100675.61;1728750;81;21058;-49
2022/10/13 09:57:37;;;;;;;7.00;1.20;;;;;;;11.51;100.00;100676.67;1728248;81;21274;-49
2022/10/13 10:00:26;;;;;;;4.95;1.30;;;;;;;11.58;100.00;100676.84;1721941;81;21043;-48
2022/10/13 10:03:05;;;;;;;10.18;1.60;;;;;;;11.63;100.00;100673.52;1728191;81;21002;-48
2022/10/13 10:05:56;;;;;;;7.12;0.98;;;;;;;11.68;100.00;100671.98;1655654;84;21038;-49
2022/10/13 10:09:12;;;;;;;3.95;0.90;;;;;;;11.71;100.00;100672.76;1727653;81;21523;-48
2022/10/13 10:11:45;;;;;;;5.53;0.90;;;;;;;11.73;100.00;100672.70;1729453;81;21002;-48
2022/10/13 10:14:28;;;;;;;6.22;1.15;;;;;;;11.74;100.00;100670.39;1730371;81;21778;-47
2022/10/13 10:17:20;;;;;;;3.10;1.00;;;;;;;11.75;100.00;100670.84;1683206;83;21320;-48
2022/10/13 10:20:36;;;;;;;6.10;1.30;;;;;;;11.79;100.00;100670.27;1727843;81;21488;-47
2022/10/13 10:23:15;;;;;;;4.87;0.85;;;;;;;11.83;100.00;100673.23;1725392;81;21034;-49
2022/10/13 10:25:53;;;;;;;3.55;1.00;;;;;;;11.85;100.00;100668.20;1653466;84;21069;-49
2022/10/13 10:28:51;;;;;;;9.58;0.88;;;;;;;11.91;100.00;100666.60;1725647;81;21774;-48
2022/10/13 10:31:47;;;;;;;7.28;1.02;;;;;;;11.91;100.00;100666.60;1625409;86;21033;-48
2022/10/13 10:34:43;;;;;;;8.65;1.98;;;;;;;11.95;100.00;100661.98;1739797;80;21133;-48
2022/10/13 10:37:31;;;;;;;;;;;;;;;12.03;100.00;100661.20;1714041;80;21697;-50
2022/10/13 10:40:10;;;;;;;5.42;1.10;;;;;;;12.10;100.00;100660.02;1742577;80;20229;-49
2022/10/13 10:43:31;;;;;;;4.45;0.90;;;;;;;12.15;100.00;100658.03;1742622;80;21845;-49
2022/10/13 10:45:59;;;;;;;6.35;1.25;;;;;;;12.18;100.00;100652.95;1744102;80;22289;-48
2022/10/13 10:48:33;;;;;;;5.72;1.05;;;;;;;12.28;100.00;100657.05;1742638;80;21084;-48
2022/10/13 10:51:00;;;;;;;4.10;1.20;;;;;;;12.31;100.00;100659.63;1747037;80;21136;-50
2022/10/13 10:54:03;;;;;;;9.98;1.57;;;;;;;12.30;100.00;100654.70;1741663;80;21286;-50
2022/10/13 10:56:34;;;;;;;4.58;1.15;;;;;;;12.34;100.00;100648.69;1662343;84;22552;-49
2022/10/13 10:59:40;;;;;;;5.37;1.25;;;;;;;12.34;100.00;100648.69;1668324;84;21143;-48
2022/10/13 11:02:41;;;;;;;4.70;1.45;;;;;;;12.36;100.00;100647.69;1720986;80;21030;-48
2022/10/13 11:05:07;;;;;;;9.48;1.37;;;;;;;12.34;100.00;100643.28;1739071;80;21080;-48
2022/10/13 11:07:45;;;;;;;6.22;1.50;;;;;;;12.34;100.00;100648.22;1713914;80;21048;-49
2022/10/13 11:10:20;;;;;;;2.55;0.88;;;;;;;12.33;100.00;100642.91;1736545;80;23282;-48
2022/10/13 11:12:55;;;;;;;4.80;0.90;;;;;;;12.36;100.00;100651.73;1739862;80;21064;-47
2022/10/13 11:15:27;;;;;;;5.45;1.25;;;;;;;12.34;100.00;100648.22;1717222;80;24164;-46
2022/10/13 11:17:55;;;;;;;5.15;0.80;;;;;;;12.33;100.00;100645.61;1744309;80;21452;-49
2022/10/13 11:20:36;;;;;;;4.83;1.00;;;;;;;12.33;100.00;100642.44;1741558;80;21665;-48
2022/10/13 11:23:09;;;;;;;4.10;1.05;;;;;;;12.33;100.00;100645.14;1737797;80;21832;-47
2022/10/13 11:25:43;;;;;;;7.08;2.15;;;;;;;12.26;100.00;100640.91;1743494;80;21096;-50
2022/10/13 11:28:26;;;;;;;6.95;2.98;;;;;;;12.26;100.00;100646.77;1750618;80;21062;-49
2022/10/13 11:31:08;;;;;;;6.37;2.22;;;;;;;12.25;100.00;100639.65;1732236;80;21030;-49
2022/10/13 11:33:41;;;;;;;7.67;3.22;;;;;;;12.23;100.00;100645.10;1747080;80;21041;-47
2022/10/13 11:36:32;;;;;;;7.28;1.65;;;;;;;12.23;100.00;100641.05;1746183;80;21948;-48
2022/10/13 11:39:30;;;;;;;4.50;1.12;;;;;;;12.24;100.00;100644.16;1715758;80;21098;-49
2022/10/13 11:43:56;;;;;;;6.00;1.10;;;;;;;12.24;100.00;100636.06;1788195;78;25372;-49
2022/10/13 11:46:51;;;;;;;6.95;1.00;;;;;;;12.24;100.00;100644.63;1754378;79;21549;-49
2022/10/13 11:49:39;;;;;;;5.10;0.80;;;;;;;12.24;100.00;100647.33;1690720;79;21346;-50